Date,TemperatureHighF,TemperatureAvgF,TemperatureLowF,DewpointHighF,DewpointAvgF,DewpointLowF,HumidityHigh,HumidityAvg,HumidityLow,PressureMaxIn,PressureMinIn,WindSpeedMaxMPH,WindSpeedAvgMPH,GustSpeedMaxMPH,PrecipitationSumIn
2013-8-1,86,68,48,52,50,46,94,56,29,29.92,29.83,9,3,14,0.00
2013-8-2,89,69,51,54,50,45,86,56,28,29.85,29.75,8,2,12,0.00
2013-8-3,86,66,52,58,53,49,95,69,37,29.83,29.77,7,2,13,0.00
2013-8-4,82,60,48,57,51,47,96,75,42,29.88,29.82,10,2,13,0.00
2013-8-5,83,61,48,56,51,45,96,74,38,29.90,29.81,9,2,12,0.00
2013-8-6,79,59,48,56,51,46,97,79,44,29.93,29.86,7,2,13,0.01
2013-8-7,72,60,52,56,53,50,95,80,57,29.99,29.92,8,3,14,0.00
2013-8-8,78,62,51,59,54,48,96,78,50,29.92,29.82,11,2,14,0.00
2013-8-9,78,59,48,57,52,47,97,80,47,29.88,29.80,8,2,14,0.00
2013-8-10,80,62,53,58,54,51,96,77,44,29.92,29.87,12,3,15,0.00
2013-8-11,85,66,50,60,54,49,97,70,35,29.90,29.80,8,2,12,0.01
2013-8-12,88,65,46,57,51,45,97,67,28,29.87,29.81,8,2,12,0.00
2013-8-13,94,71,49,57,50,44,95,55,21,29.86,29.77,8,2,13,0.00
2013-8-14,96,73,53,57,49,43,86,48,20,29.83,29.74,7,2,12,0.00
2013-8-15,93,72,58,63,59,56,94,69,33,29.82,29.77,11,2,12,0.00
2013-8-16,93,74,58,64,58,52,97,64,30,29.85,29.79,8,2,17,0.00
2013-8-17,95,74,57,58,55,50,77,55,28,29.84,29.71,6,2,12,0.00
2013-8-18,99,77,55,63,58,54,96,58,28,29.75,29.65,8,2,12,0.00
2013-8-19,92,77,59,63,58,54,84,54,32,29.76,29.67,7,2,10,0.00
2013-8-20,86,66,56,61,56,54,94,74,39,29.77,29.69,10,2,12,0.00
2013-8-21,83,63,51,57,53,49,95,75,36,29.83,29.74,7,2,12,0.00
2013-8-22,78,60,50,57,53,48,96,79,46,29.87,29.77,10,3,14,0.00
2013-8-23,87,66,50,58,54,48,97,69,33,29.81,29.67,7,2,11,0.00
2013-8-24,85,67,52,57,52,47,86,63,35,29.76,29.70,10,2,15,0.00
2013-8-25,81,66,56,61,57,54,97,76,49,29.81,29.74,9,2,18,0.00
2013-8-26,86,68,57,60,56,49,96,70,37,29.89,29.77,8,2,13,0.01
2013-8-27,89,68,53,56,51,47,83,59,26,29.79,29.68,9,2,12,0.00
2013-8-28,88,69,54,62,57,52,94,71,38,29.81,29.72,7,2,13,0.00
2013-8-29,90,69,56,64,59,54,97,74,37,29.93,29.81,11,2,13,0.01
2013-8-30,96,75,59,61,57,52,93,60,25,29.91,29.78,8,2,12,0.00
2013-8-31,90,71,57,57,52,49,82,57,26,29.84,29.74,8,2,14,0.00